sensor_id;sensor_type;location;lat;lon;timestamp;pressure;altitude;pressure_sealevel;temperature
79488;BMP180;68949;53.176;18.088;2023-08-06T00:00:48;99642.40;;;
79488;BMP180;68949;53.176;18.088;2023-08-06T00:03:34;99638.60;;;
79488;BMP180;68949;53.176;18.088;2023-08-06T00:06:00;99632.60;;;
79488;BMP180;68949;53.176;18.088;2023-08-06T00:08:26;99627.20;;;
79488;BMP180;68949;53.176;18.088;2023-08-06T00:10:52;99623.00;;;
79488;BMP180;68949;53.176;18.088;2023-08-06T00:13:18;99622.60;;;
79488;BMP180;68949;53.176;18.088;2023-08-06T00:15:43;99600.40;;;
79488;BMP180;68949;53.176;18.088;2023-08-06T00:18:09;99598.80;;;
79488;BMP180;68949;53.176;18.088;2023-08-06T00:20:39;99593.80;;;
79488;BMP180;68949;53.176;18.088;2023-08-06T00:23:07;99586.80;;;
79488;BMP180;68949;53.176;18.088;2023-08-06T00:25:34;99581.20;;;
79488;BMP180;68949;53.176;18.088;2023-08-06T00:28:00;99584.60;;;
79488;BMP180;68949;53.176;18.088;2023-08-06T00:30:26;99578.20;;;
79488;BMP180;68949;53.176;18.088;2023-08-06T00:32:52;99581.60;;;
79488;BMP180;68949;53.176;18.088;2023-08-06T00:35:18;99560.40;;;
79488;BMP180;68949;53.176;18.088;2023-08-06T00:37:44;99544.80;;;
79488;BMP180;68949;53.176;18.088;2023-08-06T00:40:10;99545.20;;;
79488;BMP180;68949;53.176;18.088;2023-08-06T00:42:36;99540.40;;;
79488;BMP180;68949;53.176;18.088;2023-08-06T00:45:03;99538.40;;;
79488;BMP180;68949;53.176;18.088;2023-08-06T00:47:29;99536.40;;;
79488;BMP180;68949;53.176;18.088;2023-08-06T00:49:55;99527.60;;;
79488;BMP180;68949;53.176;18.088;2023-08-06T00:52:21;99527.40;;;
79488;BMP180;68949;53.176;18.088;2023-08-06T00:54:47;99517.80;;;
79488;BMP180;68949;53.176;18.088;2023-08-06T00:57:15;99506.80;;;
79488;BMP180;68949;53.176;18.088;2023-08-06T00:59:41;99509.60;;;
79488;BMP180;68949;53.176;18.088;2023-08-06T01:02:07;99499.40;;;
79488;BMP180;68949;53.176;18.088;2023-08-06T01:04:33;99487.40;;;
79488;BMP180;68949;53.176;18.088;2023-08-06T01:10:58;99483.60;;;
79488;BMP180;68949;53.176;18.088;2023-08-06T01:13:36;99478.80;;;
79488;BMP180;68949;53.176;18.088;2023-08-06T01:16:03;99474.80;;;
79488;BMP180;68949;53.176;18.088;2023-08-06T01:18:31;99466.80;;;
79488;BMP180;68949;53.176;18.088;2023-08-06T01:20:57;99441.00;;;
79488;BMP180;68949;53.176;18.088;2023-08-06T01:23:24;99434.60;;;
79488;BMP180;68949;53.176;18.088;2023-08-06T01:26:14;99423.20;;;
79488;BMP180;68949;53.176;18.088;2023-08-06T01:29:08;99411.80;;;
79488;BMP180;68949;53.176;18.088;2023-08-06T01:31:39;99394.20;;;
79488;BMP180;68949;53.176;18.088;2023-08-06T01:34:14;99389.80;;;
79488;BMP180;68949;53.176;18.088;2023-08-06T01:36:43;99380.20;;;
79488;BMP180;68949;53.176;18.088;2023-08-06T01:39:09;99366.20;;;
79488;BMP180;68949;53.176;18.088;2023-08-06T01:41:36;99360.20;;;
79488;BMP180;68949;53.176;18.088;2023-08-06T01:44:03;99344.20;;;
79488;BMP180;68949;53.176;18.088;2023-08-06T01:46:31;99334.60;;;
79488;BMP180;68949;53.176;18.088;2023-08-06T01:48:57;99331.60;;;
79488;BMP180;68949;53.176;18.088;2023-08-06T01:51:23;99330.60;;;
79488;BMP180;68949;53.176;18.088;2023-08-06T01:53:49;99336.40;;;
79488;BMP180;68949;53.176;18.088;2023-08-06T01:56:15;99334.40;;;
79488;BMP180;68949;53.176;18.088;2023-08-06T01:58:40;99326.60;;;
79488;BMP180;68949;53.176;18.088;2023-08-06T02:01:06;99323.80;;;
79488;BMP180;68949;53.176;18.088;2023-08-06T02:03:32;99315.00;;;
79488;BMP180;68949;53.176;18.088;2023-08-06T02:05:58;99301.00;;;
79488;BMP180;68949;53.176;18.088;2023-08-06T02:08:24;99286.60;;;
79488;BMP180;68949;53.176;18.088;2023-08-06T02:10:50;99278.00;;;
79488;BMP180;68949;53.176;18.088;2023-08-06T02:13:16;99262.20;;;
79488;BMP180;68949;53.176;18.088;2023-08-06T02:15:44;99248.40;;;
79488;BMP180;68949;53.176;18.088;2023-08-06T02:18:10;99253.60;;;
79488;BMP180;68949;53.176;18.088;2023-08-06T02:20:36;99241.80;;;
79488;BMP180;68949;53.176;18.088;2023-08-06T02:23:02;99228.20;;;
79488;BMP180;68949;53.176;18.088;2023-08-06T02:25:28;99217.00;;;
79488;BMP180;68949;53.176;18.088;2023-08-06T02:27:54;99211.60;;;
79488;BMP180;68949;53.176;18.088;2023-08-06T02:30:20;99210.60;;;
79488;BMP180;68949;53.176;18.088;2023-08-06T02:32:45;99199.80;;;
79488;BMP180;68949;53.176;18.088;2023-08-06T02:35:12;99206.20;;;
79488;BMP180;68949;53.176;18.088;2023-08-06T02:37:38;99201.80;;;
79488;BMP180;68949;53.176;18.088;2023-08-06T02:40:05;99206.40;;;
79488;BMP180;68949;53.176;18.088;2023-08-06T02:42:31;99206.80;;;
79488;BMP180;68949;53.176;18.088;2023-08-06T02:44:57;99199.60;;;
79488;BMP180;68949;53.176;18.088;2023-08-06T02:47:23;99198.60;;;
79488;BMP180;68949;53.176;18.088;2023-08-06T02:49:49;99186.40;;;
79488;BMP180;68949;53.176;18.088;2023-08-06T02:52:16;99184.60;;;
79488;BMP180;68949;53.176;18.088;2023-08-06T02:54:42;99183.80;;;
79488;BMP180;68949;53.176;18.088;2023-08-06T02:57:09;99188.40;;;
79488;BMP180;68949;53.176;18.088;2023-08-06T02:59:35;99185.60;;;
79488;BMP180;68949;53.176;18.088;2023-08-06T03:02:09;99180.00;;;
79488;BMP180;68949;53.176;18.088;2023-08-06T03:04:42;99183.60;;;
79488;BMP180;68949;53.176;18.088;2023-08-06T03:07:09;99177.80;;;
79488;BMP180;68949;53.176;18.088;2023-08-06T03:09:41;99177.80;;;
79488;BMP180;68949;53.176;18.088;2023-08-06T03:12:08;99172.00;;;
79488;BMP180;68949;53.176;18.088;2023-08-06T03:14:34;99161.00;;;
79488;BMP180;68949;53.176;18.088;2023-08-06T03:17:00;99143.80;;;
79488;BMP180;68949;53.176;18.088;2023-08-06T03:19:26;99141.80;;;
79488;BMP180;68949;53.176;18.088;2023-08-06T03:21:53;99145.20;;;
79488;BMP180;68949;53.176;18.088;2023-08-06T03:24:21;99151.40;;;
79488;BMP180;68949;53.176;18.088;2023-08-06T03:26:47;99154.80;;;
79488;BMP180;68949;53.176;18.088;2023-08-06T03:29:13;99154.40;;;
79488;BMP180;68949;53.176;18.088;2023-08-06T03:31:40;99148.00;;;
79488;BMP180;68949;53.176;18.088;2023-08-06T03:34:06;99143.60;;;
79488;BMP180;68949;53.176;18.088;2023-08-06T03:36:32;99140.80;;;
79488;BMP180;68949;53.176;18.088;2023-08-06T03:39:00;99136.20;;;
79488;BMP180;68949;53.176;18.088;2023-08-06T03:41:26;99143.40;;;
79488;BMP180;68949;53.176;18.088;2023-08-06T03:43:52;99144.20;;;
79488;BMP180;68949;53.176;18.088;2023-08-06T03:46:22;99137.40;;;
79488;BMP180;68949;53.176;18.088;2023-08-06T03:48:48;99135.00;;;
79488;BMP180;68949;53.176;18.088;2023-08-06T03:51:14;99124.20;;;
79488;BMP180;68949;53.176;18.088;2023-08-06T03:53:42;99118.00;;;
79488;BMP180;68949;53.176;18.088;2023-08-06T03:56:09;99100.60;;;
79488;BMP180;68949;53.176;18.088;2023-08-06T03:58:35;99086.60;;;
79488;BMP180;68949;53.176;18.088;2023-08-06T04:01:03;99069.20;;;
79488;BMP180;68949;53.176;18.088;2023-08-06T04:03:41;99054.00;;;
79488;BMP180;68949;53.176;18.088;2023-08-06T04:06:07;99036.60;;;
79488;BMP180;68949;53.176;18.088;2023-08-06T04:08:33;99008.80;;;
79488;BMP180;68949;53.176;18.088;2023-08-06T04:10:59;98979.60;;;
79488;BMP180;68949;53.176;18.088;2023-08-06T04:13:25;98956.80;;;
79488;BMP180;68949;53.176;18.088;2023-08-06T04:15:51;98947.40;;;
79488;BMP180;68949;53.176;18.088;2023-08-06T04:18:17;98964.40;;;
79488;BMP180;68949;53.176;18.088;2023-08-06T04:20:47;98962.20;;;
79488;BMP180;68949;53.176;18.088;2023-08-06T04:23:15;98939.40;;;
79488;BMP180;68949;53.176;18.088;2023-08-06T04:25:41;98950.60;;;
79488;BMP180;68949;53.176;18.088;2023-08-06T04:28:07;98957.40;;;
79488;BMP180;68949;53.176;18.088;2023-08-06T04:30:34;98963.80;;;
79488;BMP180;68949;53.176;18.088;2023-08-06T04:33:01;98967.60;;;
79488;BMP180;68949;53.176;18.088;2023-08-06T04:35:27;98967.80;;;
79488;BMP180;68949;53.176;18.088;2023-08-06T04:37:53;98968.00;;;
79488;BMP180;68949;53.176;18.088;2023-08-06T04:40:19;98964.80;;;
79488;BMP180;68949;53.176;18.088;2023-08-06T04:42:45;98955.20;;;
79488;BMP180;68949;53.176;18.088;2023-08-06T04:45:11;98951.20;;;
79488;BMP180;68949;53.176;18.088;2023-08-06T04:47:37;98954.60;;;
79488;BMP180;68949;53.176;18.088;2023-08-06T04:50:03;98955.60;;;
79488;BMP180;68949;53.176;18.088;2023-08-06T04:52:29;98955.40;;;
79488;BMP180;68949;53.176;18.088;2023-08-06T04:54:58;98951.60;;;
79488;BMP180;68949;53.176;18.088;2023-08-06T04:57:24;98954.80;;;
79488;BMP180;68949;53.176;18.088;2023-08-06T04:59:50;98945.20;;;
79488;BMP180;68949;53.176;18.088;2023-08-06T05:02:16;98945.80;;;
79488;BMP180;68949;53.176;18.088;2023-08-06T05:04:42;98933.60;;;
79488;BMP180;68949;53.176;18.088;2023-08-06T05:07:08;98908.20;;;
79488;BMP180;68949;53.176;18.088;2023-08-06T05:09:34;98881.80;;;
79488;BMP180;68949;53.176;18.088;2023-08-06T05:12:04;98867.00;;;
79488;BMP180;68949;53.176;18.088;2023-08-06T05:14:30;98856.00;;;
79488;BMP180;68949;53.176;18.088;2023-08-06T05:16:56;98869.80;;;
79488;BMP180;68949;53.176;18.088;2023-08-06T05:19:22;98889.60;;;
79488;BMP180;68949;53.176;18.088;2023-08-06T05:21:48;98897.00;;;
79488;BMP180;68949;53.176;18.088;2023-08-06T05:24:14;98890.00;;;
79488;BMP180;68949;53.176;18.088;2023-08-06T05:26:40;98895.60;;;
79488;BMP180;68949;53.176;18.088;2023-08-06T05:29:05;98909.60;;;
79488;BMP180;68949;53.176;18.088;2023-08-06T05:31:31;98912.40;;;
79488;BMP180;68949;53.176;18.088;2023-08-06T05:33:57;98901.00;;;
79488;BMP180;68949;53.176;18.088;2023-08-06T05:36:23;98894.80;;;
79488;BMP180;68949;53.176;18.088;2023-08-06T05:38:49;98897.80;;;
79488;BMP180;68949;53.176;18.088;2023-08-06T05:41:15;98891.40;;;
79488;BMP180;68949;53.176;18.088;2023-08-06T05:43:41;98886.80;;;
79488;BMP180;68949;53.176;18.088;2023-08-06T05:46:07;98880.00;;;
79488;BMP180;68949;53.176;18.088;2023-08-06T05:48:33;98871.80;;;
79488;BMP180;68949;53.176;18.088;2023-08-06T05:50:59;98881.00;;;
79488;BMP180;68949;53.176;18.088;2023-08-06T05:53:25;98888.20;;;
79488;BMP180;68949;53.176;18.088;2023-08-06T05:55:51;98893.40;;;
79488;BMP180;68949;53.176;18.088;2023-08-06T05:58:17;98889.20;;;
79488;BMP180;68949;53.176;18.088;2023-08-06T06:00:45;98886.00;;;
79488;BMP180;68949;53.176;18.088;2023-08-06T06:03:11;98885.40;;;
79488;BMP180;68949;53.176;18.088;2023-08-06T06:05:38;98879.80;;;
79488;BMP180;68949;53.176;18.088;2023-08-06T06:08:07;98884.80;;;
79488;BMP180;68949;53.176;18.088;2023-08-06T06:10:33;98873.00;;;
79488;BMP180;68949;53.176;18.088;2023-08-06T06:12:59;98857.80;;;
79488;BMP180;68949;53.176;18.088;2023-08-06T06:15:24;98847.40;;;
79488;BMP180;68949;53.176;18.088;2023-08-06T06:17:50;98843.80;;;
79488;BMP180;68949;53.176;18.088;2023-08-06T06:20:16;98853.20;;;
79488;BMP180;68949;53.176;18.088;2023-08-06T06:22:43;98854.00;;;
79488;BMP180;68949;53.176;18.088;2023-08-06T06:25:09;98832.80;;;
79488;BMP180;68949;53.176;18.088;2023-08-06T06:27:36;98830.40;;;
79488;BMP180;68949;53.176;18.088;2023-08-06T06:30:02;98828.60;;;
79488;BMP180;68949;53.176;18.088;2023-08-06T06:32:28;98830.40;;;
79488;BMP180;68949;53.176;18.088;2023-08-06T06:34:55;98823.20;;;
79488;BMP180;68949;53.176;18.088;2023-08-06T06:37:21;98816.60;;;
79488;BMP180;68949;53.176;18.088;2023-08-06T06:39:47;98813.00;;;
79488;BMP180;68949;53.176;18.088;2023-08-06T06:42:13;98801.40;;;
79488;BMP180;68949;53.176;18.088;2023-08-06T06:44:42;98798.00;;;
79488;BMP180;68949;53.176;18.088;2023-08-06T06:47:08;98801.60;;;
79488;BMP180;68949;53.176;18.088;2023-08-06T06:49:34;98795.80;;;
79488;BMP180;68949;53.176;18.088;2023-08-06T06:52:00;98788.00;;;
79488;BMP180;68949;53.176;18.088;2023-08-06T06:54:26;98792.20;;;
79488;BMP180;68949;53.176;18.088;2023-08-06T06:56:52;98788.80;;;
79488;BMP180;68949;53.176;18.088;2023-08-06T06:59:18;98777.00;;;
79488;BMP180;68949;53.176;18.088;2023-08-06T07:01:44;98779.00;;;
79488;BMP180;68949;53.176;18.088;2023-08-06T07:04:10;98768.60;;;
79488;BMP180;68949;53.176;18.088;2023-08-06T07:06:36;98768.20;;;
79488;BMP180;68949;53.176;18.088;2023-08-06T07:09:02;98766.80;;;
79488;BMP180;68949;53.176;18.088;2023-08-06T07:11:28;98769.20;;;
79488;BMP180;68949;53.176;18.088;2023-08-06T07:13:58;98761.40;;;
79488;BMP180;68949;53.176;18.088;2023-08-06T07:16:25;98763.60;;;
79488;BMP180;68949;53.176;18.088;2023-08-06T07:18:53;98761.40;;;
79488;BMP180;68949;53.176;18.088;2023-08-06T07:21:20;98754.20;;;
79488;BMP180;68949;53.176;18.088;2023-08-06T07:23:46;98755.00;;;
79488;BMP180;68949;53.176;18.088;2023-08-06T07:26:16;98753.00;;;
79488;BMP180;68949;53.176;18.088;2023-08-06T07:28:43;98753.00;;;
79488;BMP180;68949;53.176;18.088;2023-08-06T07:31:10;98741.00;;;
79488;BMP180;68949;53.176;18.088;2023-08-06T07:33:37;98732.40;;;
79488;BMP180;68949;53.176;18.088;2023-08-06T07:36:14;98731.80;;;
79488;BMP180;68949;53.176;18.088;2023-08-06T07:38:44;98726.60;;;
79488;BMP180;68949;53.176;18.088;2023-08-06T07:41:10;98717.60;;;
79488;BMP180;68949;53.176;18.088;2023-08-06T07:43:37;98713.40;;;
79488;BMP180;68949;53.176;18.088;2023-08-06T07:46:03;98705.80;;;
79488;BMP180;68949;53.176;18.088;2023-08-06T07:48:30;98694.80;;;
79488;BMP180;68949;53.176;18.088;2023-08-06T07:50:57;98700.40;;;
79488;BMP180;68949;53.176;18.088;2023-08-06T07:53:25;98693.80;;;
79488;BMP180;68949;53.176;18.088;2023-08-06T07:55:57;98685.20;;;
79488;BMP180;68949;53.176;18.088;2023-08-06T07:58:25;98694.80;;;
79488;BMP180;68949;53.176;18.088;2023-08-06T08:00:51;98688.80;;;
79488;BMP180;68949;53.176;18.088;2023-08-06T08:03:17;98690.60;;;
79488;BMP180;68949;53.176;18.088;2023-08-06T08:05:44;98687.80;;;
79488;BMP180;68949;53.176;18.088;2023-08-06T08:08:10;98676.00;;;
79488;BMP180;68949;53.176;18.088;2023-08-06T08:10:36;98673.80;;;
79488;BMP180;68949;53.176;18.088;2023-08-06T08:13:04;98673.40;;;
79488;BMP180;68949;53.176;18.088;2023-08-06T08:15:32;98669.60;;;
79488;BMP180;68949;53.176;18.088;2023-08-06T08:17:59;98675.60;;;
79488;BMP180;68949;53.176;18.088;2023-08-06T08:20:26;98674.20;;;
79488;BMP180;68949;53.176;18.088;2023-08-06T08:22:59;98674.60;;;
79488;BMP180;68949;53.176;18.088;2023-08-06T08:25:27;98670.60;;;
79488;BMP180;68949;53.176;18.088;2023-08-06T08:27:55;98671.40;;;
79488;BMP180;68949;53.176;18.088;2023-08-06T08:30:22;98665.20;;;
79488;BMP180;68949;53.176;18.088;2023-08-06T08:32:48;98656.00;;;
79488;BMP180;68949;53.176;18.088;2023-08-06T08:35:15;98650.60;;;
79488;BMP180;68949;53.176;18.088;2023-08-06T08:37:42;98642.60;;;
79488;BMP180;68949;53.176;18.088;2023-08-06T08:40:09;98634.20;;;
79488;BMP180;68949;53.176;18.088;2023-08-06T08:42:37;98635.20;;;
79488;BMP180;68949;53.176;18.088;2023-08-06T08:45:07;98623.80;;;
79488;BMP180;68949;53.176;18.088;2023-08-06T08:47:38;98621.00;;;
79488;BMP180;68949;53.176;18.088;2023-08-06T08:50:06;98618.00;;;
79488;BMP180;68949;53.176;18.088;2023-08-06T08:52:38;98606.40;;;
79488;BMP180;68949;53.176;18.088;2023-08-06T08:55:08;98603.00;;;
79488;BMP180;68949;53.176;18.088;2023-08-06T08:57:36;98604.40;;;
79488;BMP180;68949;53.176;18.088;2023-08-06T09:00:03;98609.00;;;
79488;BMP180;68949;53.176;18.088;2023-08-06T09:02:32;98606.40;;;
79488;BMP180;68949;53.176;18.088;2023-08-06T09:05:01;98606.20;;;
79488;BMP180;68949;53.176;18.088;2023-08-06T09:07:35;98604.20;;;
79488;BMP180;68949;53.176;18.088;2023-08-06T09:10:03;98599.80;;;
79488;BMP180;68949;53.176;18.088;2023-08-06T09:12:30;98593.40;;;
79488;BMP180;68949;53.176;18.088;2023-08-06T09:14:57;98586.00;;;
79488;BMP180;68949;53.176;18.088;2023-08-06T09:17:24;98586.60;;;
79488;BMP180;68949;53.176;18.088;2023-08-06T09:19:50;98592.20;;;
79488;BMP180;68949;53.176;18.088;2023-08-06T09:22:16;98596.20;;;
79488;BMP180;68949;53.176;18.088;2023-08-06T09:24:42;98588.60;;;
79488;BMP180;68949;53.176;18.088;2023-08-06T09:27:13;98587.00;;;
79488;BMP180;68949;53.176;18.088;2023-08-06T09:29:44;98586.40;;;
79488;BMP180;68949;53.176;18.088;2023-08-06T09:32:12;98586.40;;;
79488;BMP180;68949;53.176;18.088;2023-08-06T09:34:41;98580.80;;;
79488;BMP180;68949;53.176;18.088;2023-08-06T09:37:09;98576.40;;;
79488;BMP180;68949;53.176;18.088;2023-08-06T09:39:40;98569.40;;;
79488;BMP180;68949;53.176;18.088;2023-08-06T09:42:07;98562.20;;;
79488;BMP180;68949;53.176;18.088;2023-08-06T09:44:34;98562.40;;;
79488;BMP180;68949;53.176;18.088;2023-08-06T09:47:03;98564.00;;;
79488;BMP180;68949;53.176;18.088;2023-08-06T09:52:00;98552.40;;;
79488;BMP180;68949;53.176;18.088;2023-08-06T09:54:27;98542.00;;;
79488;BMP180;68949;53.176;18.088;2023-08-06T09:56:55;98549.20;;;
79488;BMP180;68949;53.176;18.088;2023-08-06T09:59:23;98548.40;;;
79488;BMP180;68949;53.176;18.088;2023-08-06T10:01:50;98539.00;;;
79488;BMP180;68949;53.176;18.088;2023-08-06T10:04:16;98538.00;;;
79488;BMP180;68949;53.176;18.088;2023-08-06T10:06:47;98534.80;;;
79488;BMP180;68949;53.176;18.088;2023-08-06T10:09:14;98517.60;;;
79488;BMP180;68949;53.176;18.088;2023-08-06T10:11:42;98508.20;;;
79488;BMP180;68949;53.176;18.088;2023-08-06T10:14:32;98506.00;;;
79488;BMP180;68949;53.176;18.088;2023-08-06T10:17:00;98502.80;;;
79488;BMP180;68949;53.176;18.088;2023-08-06T10:19:27;98495.00;;;
79488;BMP180;68949;53.176;18.088;2023-08-06T10:22:16;98493.80;;;
79488;BMP180;68949;53.176;18.088;2023-08-06T10:24:53;98508.60;;;
79488;BMP180;68949;53.176;18.088;2023-08-06T10:27:31;98507.60;;;
79488;BMP180;68949;53.176;18.088;2023-08-06T10:30:28;98497.20;;;
79488;BMP180;68949;53.176;18.088;2023-08-06T10:32:57;98480.80;;;
79488;BMP180;68949;53.176;18.088;2023-08-06T10:35:42;98479.40;;;
79488;BMP180;68949;53.176;18.088;2023-08-06T10:38:14;98488.80;;;
79488;BMP180;68949;53.176;18.088;2023-08-06T10:40:48;98480.80;;;
79488;BMP180;68949;53.176;18.088;2023-08-06T10:43:36;98471.00;;;
79488;BMP180;68949;53.176;18.088;2023-08-06T10:46:31;98464.20;;;
79488;BMP180;68949;53.176;18.088;2023-08-06T10:48:59;98462.20;;;
79488;BMP180;68949;53.176;18.088;2023-08-06T10:51:25;98453.80;;;
79488;BMP180;68949;53.176;18.088;2023-08-06T10:53:51;98451.40;;;
79488;BMP180;68949;53.176;18.088;2023-08-06T10:56:20;98442.40;;;
79488;BMP180;68949;53.176;18.088;2023-08-06T10:58:52;98441.80;;;
79488;BMP180;68949;53.176;18.088;2023-08-06T11:01:19;98431.40;;;
79488;BMP180;68949;53.176;18.088;2023-08-06T11:03:47;98429.80;;;
79488;BMP180;68949;53.176;18.088;2023-08-06T11:06:22;98425.20;;;
79488;BMP180;68949;53.176;18.088;2023-08-06T11:08:51;98420.00;;;
79488;BMP180;68949;53.176;18.088;2023-08-06T11:11:19;98419.80;;;
79488;BMP180;68949;53.176;18.088;2023-08-06T11:13:49;98411.60;;;
79488;BMP180;68949;53.176;18.088;2023-08-06T11:16:18;98409.40;;;
79488;BMP180;68949;53.176;18.088;2023-08-06T11:18:45;98411.60;;;
79488;BMP180;68949;53.176;18.088;2023-08-06T11:21:11;98408.00;;;
79488;BMP180;68949;53.176;18.088;2023-08-06T11:23:38;98402.20;;;
79488;BMP180;68949;53.176;18.088;2023-08-06T11:26:04;98398.40;;;
79488;BMP180;68949;53.176;18.088;2023-08-06T11:28:30;98397.20;;;
79488;BMP180;68949;53.176;18.088;2023-08-06T11:30:58;98392.40;;;
79488;BMP180;68949;53.176;18.088;2023-08-06T11:33:28;98385.00;;;
79488;BMP180;68949;53.176;18.088;2023-08-06T11:35:56;98387.00;;;
79488;BMP180;68949;53.176;18.088;2023-08-06T11:38:28;98376.40;;;
79488;BMP180;68949;53.176;18.088;2023-08-06T11:40:54;98376.20;;;
79488;BMP180;68949;53.176;18.088;2023-08-06T11:43:21;98357.80;;;
79488;BMP180;68949;53.176;18.088;2023-08-06T11:45:49;98346.80;;;
79488;BMP180;68949;53.176;18.088;2023-08-06T11:48:16;98337.00;;;
79488;BMP180;68949;53.176;18.088;2023-08-06T11:50:44;98339.00;;;
79488;BMP180;68949;53.176;18.088;2023-08-06T11:53:13;98342.40;;;
79488;BMP180;68949;53.176;18.088;2023-08-06T11:55:43;98338.80;;;
79488;BMP180;68949;53.176;18.088;2023-08-06T11:58:10;98325.80;;;
79488;BMP180;68949;53.176;18.088;2023-08-06T12:00:37;98331.00;;;
79488;BMP180;68949;53.176;18.088;2023-08-06T12:03:05;98322.80;;;
79488;BMP180;68949;53.176;18.088;2023-08-06T12:05:32;98319.60;;;
79488;BMP180;68949;53.176;18.088;2023-08-06T12:08:03;98317.60;;;
79488;BMP180;68949;53.176;18.088;2023-08-06T12:10:31;98313.80;;;
79488;BMP180;68949;53.176;18.088;2023-08-06T12:12:57;98311.00;;;
79488;BMP180;68949;53.176;18.088;2023-08-06T12:15:23;98311.40;;;
79488;BMP180;68949;53.176;18.088;2023-08-06T12:17:50;98315.60;;;
79488;BMP180;68949;53.176;18.088;2023-08-06T12:20:17;98316.80;;;
79488;BMP180;68949;53.176;18.088;2023-08-06T12:22:43;98316.80;;;
79488;BMP180;68949;53.176;18.088;2023-08-06T12:25:11;98312.00;;;
79488;BMP180;68949;53.176;18.088;2023-08-06T12:27:41;98316.00;;;
79488;BMP180;68949;53.176;18.088;2023-08-06T12:30:09;98320.80;;;
79488;BMP180;68949;53.176;18.088;2023-08-06T12:32:36;98319.40;;;
79488;BMP180;68949;53.176;18.088;2023-08-06T12:35:03;98311.80;;;
79488;BMP180;68949;53.176;18.088;2023-08-06T12:37:30;98297.60;;;
79488;BMP180;68949;53.176;18.088;2023-08-06T12:39:56;98298.80;;;
79488;BMP180;68949;53.176;18.088;2023-08-06T12:42:22;98297.00;;;
79488;BMP180;68949;53.176;18.088;2023-08-06T12:44:50;98290.60;;;
79488;BMP180;68949;53.176;18.088;2023-08-06T12:47:17;98278.00;;;
79488;BMP180;68949;53.176;18.088;2023-08-06T12:49:43;98271.20;;;
79488;BMP180;68949;53.176;18.088;2023-08-06T12:52:09;98269.00;;;
79488;BMP180;68949;53.176;18.088;2023-08-06T12:54:38;98271.00;;;
79488;BMP180;68949;53.176;18.088;2023-08-06T12:57:05;98265.60;;;
79488;BMP180;68949;53.176;18.088;2023-08-06T12:59:32;98259.60;;;
79488;BMP180;68949;53.176;18.088;2023-08-06T13:02:00;98255.60;;;
79488;BMP180;68949;53.176;18.088;2023-08-06T13:04:26;98252.00;;;
79488;BMP180;68949;53.176;18.088;2023-08-06T13:06:52;98245.40;;;
79488;BMP180;68949;53.176;18.088;2023-08-06T13:09:19;98233.20;;;
79488;BMP180;68949;53.176;18.088;2023-08-06T13:11:47;98236.60;;;
79488;BMP180;68949;53.176;18.088;2023-08-06T13:14:18;98235.80;;;
79488;BMP180;68949;53.176;18.088;2023-08-06T13:16:44;98225.80;;;
79488;BMP180;68949;53.176;18.088;2023-08-06T13:19:11;98214.20;;;
79488;BMP180;68949;53.176;18.088;2023-08-06T13:24:16;98214.20;;;
79488;BMP180;68949;53.176;18.088;2023-08-06T13:26:42;98200.40;;;
79488;BMP180;68949;53.176;18.088;2023-08-06T13:29:09;98192.80;;;
79488;BMP180;68949;53.176;18.088;2023-08-06T13:31:38;98198.20;;;
79488;BMP180;68949;53.176;18.088;2023-08-06T13:34:04;98198.20;;;
79488;BMP180;68949;53.176;18.088;2023-08-06T13:36:31;98205.60;;;
79488;BMP180;68949;53.176;18.088;2023-08-06T13:38:57;98196.20;;;
79488;BMP180;68949;53.176;18.088;2023-08-06T13:41:25;98192.60;;;
79488;BMP180;68949;53.176;18.088;2023-08-06T13:43:51;98199.80;;;
79488;BMP180;68949;53.176;18.088;2023-08-06T13:46:18;98207.20;;;
79488;BMP180;68949;53.176;18.088;2023-08-06T13:48:48;98208.20;;;
79488;BMP180;68949;53.176;18.088;2023-08-06T13:51:18;98216.80;;;
79488;BMP180;68949;53.176;18.088;2023-08-06T13:53:45;98215.00;;;
79488;BMP180;68949;53.176;18.088;2023-08-06T13:56:12;98210.40;;;
79488;BMP180;68949;53.176;18.088;2023-08-06T13:58:39;98214.60;;;
79488;BMP180;68949;53.176;18.088;2023-08-06T14:01:10;98212.20;;;
79488;BMP180;68949;53.176;18.088;2023-08-06T14:03:37;98190.60;;;
79488;BMP180;68949;53.176;18.088;2023-08-06T14:06:03;98183.60;;;
79488;BMP180;68949;53.176;18.088;2023-08-06T14:08:30;98180.60;;;
79488;BMP180;68949;53.176;18.088;2023-08-06T14:10:56;98184.60;;;
79488;BMP180;68949;53.176;18.088;2023-08-06T14:13:24;98177.60;;;
79488;BMP180;68949;53.176;18.088;2023-08-06T14:15:50;98180.00;;;
79488;BMP180;68949;53.176;18.088;2023-08-06T14:18:29;98188.20;;;
79488;BMP180;68949;53.176;18.088;2023-08-06T14:20:55;98195.60;;;
79488;BMP180;68949;53.176;18.088;2023-08-06T14:23:22;98205.80;;;
79488;BMP180;68949;53.176;18.088;2023-08-06T14:25:48;98204.60;;;
79488;BMP180;68949;53.176;18.088;2023-08-06T14:28:14;98205.00;;;
79488;BMP180;68949;53.176;18.088;2023-08-06T14:30:41;98200.00;;;
79488;BMP180;68949;53.176;18.088;2023-08-06T14:33:07;98188.40;;;
79488;BMP180;68949;53.176;18.088;2023-08-06T14:35:34;98189.00;;;
79488;BMP180;68949;53.176;18.088;2023-08-06T14:38:01;98185.40;;;
79488;BMP180;68949;53.176;18.088;2023-08-06T14:40:30;98181.60;;;
79488;BMP180;68949;53.176;18.088;2023-08-06T14:43:00;98171.80;;;
79488;BMP180;68949;53.176;18.088;2023-08-06T14:45:38;98170.00;;;
79488;BMP180;68949;53.176;18.088;2023-08-06T14:48:09;98174.80;;;
79488;BMP180;68949;53.176;18.088;2023-08-06T14:50:36;98180.60;;;
79488;BMP180;68949;53.176;18.088;2023-08-06T14:53:07;98180.40;;;
79488;BMP180;68949;53.176;18.088;2023-08-06T14:55:39;98171.80;;;
79488;BMP180;68949;53.176;18.088;2023-08-06T14:58:05;98164.80;;;
79488;BMP180;68949;53.176;18.088;2023-08-06T15:00:33;98152.20;;;
79488;BMP180;68949;53.176;18.088;2023-08-06T15:03:04;98159.20;;;
79488;BMP180;68949;53.176;18.088;2023-08-06T15:05:30;98169.20;;;
79488;BMP180;68949;53.176;18.088;2023-08-06T15:07:56;98174.60;;;
79488;BMP180;68949;53.176;18.088;2023-08-06T15:10:23;98174.80;;;
79488;BMP180;68949;53.176;18.088;2023-08-06T15:12:49;98176.80;;;